EST,Max TemperatureF,Mean TemperatureF,Min TemperatureF,Max Dew PointF,MeanDew PointF,Min DewpointF,Max Humidity, Mean Humidity, Min Humidity, Max Sea Level PressureIn, Mean Sea Level PressureIn, Min Sea Level PressureIn, Max VisibilityMiles, Mean VisibilityMiles, Min VisibilityMiles, Max Wind SpeedMPH, Mean Wind SpeedMPH, Max Gust SpeedMPH,PrecipitationIn, CloudCover, Events, WindDirDegrees
2012-12-1,71,59,46,54,50,47,93,71,49,30.39,30.34,30.31,10,10,10,15,5,23,0.00,5,,69
2012-12-2,74,62,50,59,55,50,100,77,53,30.39,30.33,30.29,10,9,2,13,3,15,0.00,4,,113
2012-12-3,78,64,49,60,55,48,100,75,50,30.34,30.30,30.26,10,6,0,13,3,15,0.00,4,Fog,195
2012-12-4,76,66,55,59,57,55,93,75,57,30.36,30.29,30.25,10,10,7,10,3,13,0.00,5,Fog,227
2012-12-5,76,62,48,56,52,49,100,69,38,30.25,30.18,30.11,10,8,2,10,2,13,0.00,4,Fog,280
2012-12-6,67,60,52,54,50,42,100,82,63,30.20,30.15,30.13,10,10,10,16,9,22,0.00,6,,48
2012-12-7,62,57,51,54,50,43,93,80,67,30.13,30.05,30.00,10,10,7,13,7,17,0.00,7,,3
2012-12-8,70,59,48,55,52,48,100,80,59,30.11,30.06,30.02,10,7,0,10,2,16,0.00,5,Fog,321
2012-12-9,78,65,51,64,59,50,100,82,64,30.14,30.08,29.99,10,9,6,12,2,17,0.00,5,,158
2012-12-10,75,67,59,65,61,57,100,81,61,29.97,29.90,29.80,10,6,0,18,8,24,0.00,5,Fog,217
2012-12-11,73,66,59,64,61,57,100,84,68,30.07,29.95,29.81,10,9,5,13,5,17,0.03,7,Rain,285
2012-12-12,60,53,45,57,51,43,93,90,86,30.20,30.14,30.07,10,9,3,17,9,23,0.53,8,Rain,18
2012-12-13,49,46,42,43,41,40,100,90,80,30.33,30.27,30.18,10,10,5,22,11,28,0.11,6,Rain,14
2012-12-14,61,50,38,42,39,36,92,69,46,30.38,30.29,30.22,10,10,10,13,6,16,0.00,3,,18
2012-12-15,61,54,47,54,48,37,93,80,66,30.25,30.17,30.11,10,8,0,9,4,13,T,8,Fog,10
2012-12-16,75,63,51,62,57,52,100,82,64,30.10,30.04,29.91,10,5,0,18,6,23,0.00,7,Fog,185
2012-12-17,70,65,59,63,60,57,93,83,73,29.90,29.84,29.75,10,9,1,25,8,37,0.48,7,Rain-Thunderstorm,224
2012-12-18,68,57,46,59,46,31,97,63,28,30.01,29.85,29.77,10,10,10,24,10,36,0.00,3,,264
2012-12-19,72,56,39,44,36,30,77,50,23,30.13,30.08,30.01,10,10,10,14,4,18,0.00,1,,255
2012-12-20,75,58,40,64,53,39,100,75,49,30.12,29.91,29.67,10,9,2,32,12,40,0.18,5,Fog-Rain,200
2012-12-21,57,50,42,41,26,18,59,45,30,29.99,29.88,29.77,10,10,10,29,17,43,0.00,1,,280
2012-12-22,59,47,35,24,19,14,51,34,17,30.19,30.12,29.99,10,10,10,20,8,25,0.00,0,,278
2012-12-23,59,45,31,38,27,22,72,48,24,30.23,30.16,30.12,10,10,10,12,4,15,0.00,5,,245
2012-12-24,64,54,44,52,41,33,89,62,34,30.12,30.03,29.96,10,10,10,21,6,25,T,7,Rain,211
2012-12-25,61,55,49,54,52,48,100,86,72,30.09,30.01,29.94,10,9,2,16,6,22,0.76,8,Rain,40
2012-12-26,68,56,43,64,52,30,100,74,48,29.93,29.71,29.55,10,8,2,35,16,44,0.65,6,Rain-Thunderstorm,217
2012-12-27,56,46,35,36,33,30,92,68,43,30.08,29.98,29.85,10,10,10,20,7,28,0.00,3,,282
2012-12-28,58,46,33,46,39,32,96,77,57,30.16,30.07,29.93,10,10,10,9,4,,0.00,5,,74
2012-12-29,62,52,41,61,45,30,93,75,57,30.07,29.84,29.69,10,9,3,24,13,35,0.82,6,Rain,287
2012-12-30,52,41,29,30,26,21,92,61,30,30.45,30.32,30.09,10,10,10,17,8,24,0.00,0,,320
2012-12-31,62,44,26,44,34,23,92,61,29,30.45,30.34,30.21,10,10,9,10,2,,0.00,3,,209